KARR

Aurora Municipal Airport

Chicago/Aurora, Illinois, USA
METAR KARR 092152Z AUTO 34007KT 5SM HZ CLR M02/M07 A3031 RMK AO2 SLP276 T10171067 TSNO
Observed Flight Rules
Dec-9 @ 21:52 UTC (44 minutes ago) Marginal Visual Flight Rules
Wind Visibility Clouds Conditions
340° at 7 knots 5 miles
  • Clear skies
  • Haze
Temperatures Readings
Current -2°C / 28°F
Dewpoint -7°C / 19°F
Humidity 69%
Altimeter 30.31" Hg
Pressure 1027.6 hPa
Elevation 215
METAR KARR 092152Z AUTO 34007KT 5SM HZ CLR M02/M07 A3031 RMK AO2 SLP276 T10171067 TSNO
Observed Flight Rules
Dec-9 @ 21:52 UTC
(44 minutes ago)
MVFR
Wind Visibility
340° at 7 knots 5 miles
Clouds
  • Clear skies
Conditions
  • Haze
Temperature Dewpoint
-2°C / 28°F -7°C / 19°F
Humidity Altimeter Pressure
69% 30.31" Hg 1027.6 hPa